createdAt,value
2022-08-11T00:00:48.754Z,71.73
2022-08-11T00:01:48.720Z,71.80
2022-08-11T00:02:48.776Z,71.60
2022-08-11T00:03:48.699Z,71.60
2022-08-11T00:04:48.685Z,72.30
2022-08-11T00:05:48.682Z,71.40
2022-08-11T00:06:48.674Z,71.20
2022-08-11T00:07:48.661Z,71.83
2022-08-11T00:08:48.647Z,72.00
2022-08-11T00:09:48.636Z,72.20
2022-08-11T00:10:48.631Z,71.94
2022-08-11T00:11:48.624Z,71.83
2022-08-11T00:12:48.600Z,71.90
2022-08-11T00:13:48.597Z,72.13
2022-08-11T00:14:48.577Z,72.44
2022-08-11T00:15:48.750Z,71.94
2022-08-11T00:16:48.563Z,71.94
2022-08-11T00:17:48.545Z,72.13
2022-08-11T00:18:48.536Z,72.24
2022-08-11T00:20:12.715Z,72.13
2022-08-11T00:20:49.506Z,71.63
2022-08-11T00:22:03.812Z,72.53
2022-08-11T00:22:49.491Z,72.57
2022-08-11T00:23:48.476Z,72.17
2022-08-11T00:24:54.793Z,72.47
2022-08-11T00:25:49.451Z,72.67
2022-08-11T00:26:48.466Z,72.37
2022-08-11T00:27:48.436Z,72.77
2022-08-11T00:28:48.423Z,72.77
2022-08-11T00:29:51.646Z,72.97
2022-08-11T00:30:48.401Z,73.07
2022-08-11T00:31:48.383Z,72.97
2022-08-11T00:32:48.388Z,73.18
2022-08-11T00:33:48.365Z,73.38
2022-08-11T00:34:48.359Z,73.61
2022-08-11T00:35:51.906Z,74.01
2022-08-11T00:36:49.327Z,73.71
2022-08-11T00:37:48.343Z,73.71
2022-08-11T00:38:48.312Z,73.81
2022-08-11T00:39:48.362Z,74.01
2022-08-11T00:40:48.287Z,74.11
2022-08-11T00:41:48.270Z,74.62
2022-08-11T00:42:49.279Z,74.41
2022-08-11T00:43:48.248Z,74.52
2022-08-11T00:44:48.239Z,74.32
2022-08-11T00:45:48.228Z,74.52
2022-08-11T00:46:48.223Z,74.32
2022-08-11T00:47:48.212Z,74.41
2022-08-11T00:48:48.195Z,74.62
2022-08-11T00:49:48.190Z,74.11
2022-08-11T00:50:48.175Z,74.11
2022-08-11T00:52:04.256Z,74.01
2022-08-11T00:52:49.163Z,73.41
2022-08-11T00:53:48.137Z,73.51
2022-08-11T00:54:48.125Z,73.81
2022-08-11T00:55:55.922Z,73.81
2022-08-11T00:56:49.114Z,74.32
2022-08-11T00:57:48.100Z,74.21
2022-08-11T00:58:50.805Z,74.62
2022-08-11T00:59:48.065Z,74.41
2022-08-11T01:00:48.135Z,74.32
2022-08-11T01:01:48.043Z,74.41
2022-08-11T01:02:48.048Z,74.52
2022-08-11T01:03:48.025Z,74.52
2022-08-11T01:04:52.335Z,74.82
2022-08-11T01:05:49.000Z,74.35
2022-08-11T01:06:47.992Z,74.65
2022-08-11T01:08:00.486Z,74.55
2022-08-11T01:08:48.968Z,74.75
2022-08-11T01:09:47.951Z,74.45
2022-08-11T01:10:47.946Z,74.45
2022-08-11T01:11:55.960Z,74.95
2022-08-11T01:12:48.934Z,75.76
2022-08-11T01:13:47.928Z,75.09
2022-08-11T01:14:47.911Z,75.76
2022-08-11T01:15:57.413Z,75.76
2022-08-11T01:16:48.919Z,75.66
2022-08-11T01:17:47.868Z,75.35
2022-08-11T01:18:47.866Z,75.76
2022-08-11T01:20:46.665Z,75.26
2022-08-11T01:20:49.443Z,75.39
2022-08-11T01:21:47.822Z,75.26
2022-08-11T01:22:47.815Z,75.56
2022-08-11T01:23:47.815Z,75.56
2022-08-11T01:24:47.791Z,75.49
2022-08-11T01:25:57.290Z,76.06
2022-08-11T01:26:48.775Z,76.20
2022-08-11T01:27:47.758Z,75.70
2022-08-11T01:28:47.753Z,75.39
2022-08-11T01:29:49.296Z,75.79
2022-08-11T01:30:47.739Z,75.79
2022-08-11T01:31:47.709Z,75.70
2022-08-11T01:32:47.703Z,76.30
2022-08-11T01:33:47.693Z,76.20
2022-08-11T01:34:47.696Z,76.10
2022-08-11T01:35:47.663Z,75.90
2022-08-11T01:36:47.657Z,75.99
2022-08-11T01:37:48.642Z,76.14
2022-08-11T01:38:47.633Z,75.90
2022-08-11T01:39:47.743Z,75.99
2022-08-11T01:40:47.608Z,76.23
2022-08-11T01:41:47.627Z,76.03
2022-08-11T01:42:47.592Z,75.53
2022-08-11T01:43:47.583Z,76.43
2022-08-11T01:44:47.588Z,75.93
2022-08-11T01:45:47.552Z,75.96
2022-08-11T01:46:47.544Z,76.47
2022-08-11T01:47:52.560Z,76.17
2022-08-11T01:48:48.521Z,76.37
2022-08-11T01:50:07.688Z,76.37
2022-08-11T01:50:48.518Z,76.67
2022-08-11T01:51:47.521Z,76.47
2022-08-11T01:52:47.481Z,76.57
2022-08-11T01:53:47.461Z,76.27
2022-08-11T01:54:47.465Z,76.67
2022-08-11T01:55:47.455Z,76.47
2022-08-11T01:56:47.435Z,76.81
2022-08-11T01:57:47.419Z,77.17
2022-08-11T01:58:47.420Z,77.11
2022-08-11T01:59:47.399Z,77.11
2022-08-11T02:00:47.540Z,77.31
2022-08-11T02:01:47.377Z,76.91
2022-08-11T02:02:47.370Z,77.31
2022-08-11T02:03:47.361Z,77.21
2022-08-11T02:04:47.341Z,77.21
2022-08-11T02:05:47.361Z,77.42
2022-08-11T02:06:47.326Z,77.82
2022-08-11T02:07:47.306Z,77.82
2022-08-11T02:08:50.440Z,77.82
2022-08-11T02:09:49.811Z,77.72
2022-08-11T02:10:50.786Z,77.92
2022-08-11T02:11:47.288Z,77.92
2022-08-11T02:12:52.661Z,77.92
2022-08-11T02:13:48.954Z,78.02
2022-08-11T02:15:04.411Z,78.12
2022-08-11T02:15:48.212Z,78.02
2022-08-11T02:16:47.209Z,77.72
2022-08-11T02:17:47.208Z,77.86
2022-08-11T02:18:47.182Z,77.35
2022-08-11T02:19:47.179Z,77.35
2022-08-11T02:20:47.156Z,77.45
2022-08-11T02:21:47.150Z,77.86
2022-08-11T02:22:47.159Z,77.66
2022-08-11T02:24:04.509Z,78.19
2022-08-11T02:24:48.112Z,77.79
2022-08-11T02:25:47.102Z,78.09
2022-08-11T02:26:47.099Z,78.30
2022-08-11T02:27:47.094Z,78.50
2022-08-11T02:28:47.074Z,78.19
2022-08-11T02:29:47.056Z,78.19
2022-08-11T02:30:47.051Z,78.39
2022-08-11T02:32:24.306Z,78.50
2022-08-11T02:32:48.053Z,78.50
2022-08-11T02:33:47.007Z,78.50
2022-08-11T02:34:59.560Z,78.30
2022-08-11T02:35:47.983Z,78.39
2022-08-11T02:36:46.980Z,78.39
2022-08-11T02:37:46.969Z,78.70
2022-08-11T02:38:46.973Z,78.59
2022-08-11T02:39:46.979Z,78.70
2022-08-11T02:40:46.939Z,78.39
2022-08-11T02:41:46.922Z,78.50
2022-08-11T02:42:47.453Z,78.59
2022-08-11T02:43:50.895Z,78.90
2022-08-11T02:44:46.887Z,78.90
2022-08-11T02:45:46.878Z,78.90
2022-08-11T02:46:46.866Z,78.39
2022-08-11T02:47:46.871Z,78.59
2022-08-11T02:48:46.860Z,78.30
2022-08-11T02:49:46.844Z,78.56
2022-08-11T02:50:47.824Z,78.70
2022-08-11T02:51:46.810Z,78.70
2022-08-11T02:52:46.803Z,78.70
2022-08-11T02:53:54.450Z,78.39
2022-08-11T02:54:47.781Z,78.50
2022-08-11T02:55:57.819Z,78.90
2022-08-11T02:56:47.757Z,78.59
2022-08-11T02:57:46.738Z,78.70
2022-08-11T02:58:46.747Z,78.70
2022-08-11T02:59:46.724Z,78.59
2022-08-11T03:00:46.705Z,78.59
2022-08-11T03:01:46.790Z,78.59
2022-08-11T03:02:46.727Z,78.59
2022-08-11T03:03:46.694Z,78.84
2022-08-11T03:04:46.660Z,79.00
2022-08-11T03:05:46.646Z,78.70
2022-08-11T03:06:46.638Z,78.59
2022-08-11T03:07:46.623Z,78.84
2022-08-11T03:08:46.621Z,78.63
2022-08-11T03:09:46.620Z,78.53
2022-08-11T03:10:46.593Z,79.14
2022-08-11T03:11:46.579Z,79.04
2022-08-11T03:12:51.622Z,79.34
2022-08-11T03:13:47.576Z,80.05
2022-08-11T03:14:46.567Z,79.94
2022-08-11T03:15:46.535Z,79.44
2022-08-11T03:16:46.560Z,80.15
2022-08-11T03:17:46.519Z,79.64
2022-08-11T03:18:46.515Z,80.05
2022-08-11T03:19:46.514Z,79.85
2022-08-11T03:20:46.482Z,79.54
2022-08-11T03:22:01.169Z,79.64
2022-08-11T03:22:47.460Z,79.64
2022-08-11T03:23:46.447Z,80.55
2022-08-11T03:24:46.470Z,79.54
2022-08-11T03:25:46.431Z,79.74
2022-08-11T03:26:46.433Z,79.94
2022-08-11T03:27:46.403Z,79.64
2022-08-11T03:28:46.405Z,79.54
2022-08-11T03:29:46.387Z,79.74
2022-08-11T03:30:46.366Z,79.64
2022-08-11T03:31:46.350Z,79.74
2022-08-11T03:32:46.349Z,79.94
2022-08-11T03:33:46.336Z,79.74
2022-08-11T03:34:46.356Z,79.54
2022-08-11T03:35:46.311Z,79.54
2022-08-11T03:37:15.512Z,79.54
2022-08-11T03:37:47.286Z,79.58
2022-08-11T03:38:46.281Z,79.28
2022-08-11T03:39:51.122Z,79.28
2022-08-11T03:40:47.264Z,80.08
2022-08-11T03:42:02.302Z,80.08
2022-08-11T03:42:47.236Z,80.29
2022-08-11T03:43:58.461Z,80.29
2022-08-11T03:44:47.232Z,79.99
2022-08-11T03:45:46.219Z,80.19
2022-08-11T03:46:46.183Z,80.29
2022-08-11T03:47:55.161Z,79.88
2022-08-11T03:48:46.167Z,80.32
2022-08-11T03:49:46.150Z,81.03
2022-08-11T03:50:46.155Z,81.34
2022-08-11T03:51:51.580Z,81.23
2022-08-11T03:52:47.120Z,82.04
2022-08-11T03:53:46.104Z,81.54
2022-08-11T03:54:46.112Z,81.23
2022-08-11T03:55:46.089Z,81.54
2022-08-11T03:56:46.096Z,81.34
2022-08-11T03:57:46.055Z,82.24
2022-08-11T03:58:46.241Z,81.54
2022-08-11T03:59:46.047Z,81.94
2022-08-11T04:00:46.030Z,81.54
2022-08-11T04:01:46.157Z,82.35
2022-08-11T04:02:46.022Z,81.54
2022-08-11T04:03:45.990Z,82.04
2022-08-11T04:04:50.542Z,81.44
2022-08-11T04:05:46.962Z,81.84
2022-08-11T04:06:45.954Z,81.23
2022-08-11T04:07:45.943Z,81.13
2022-08-11T04:08:45.959Z,81.74
2022-08-11T04:09:45.955Z,81.64
2022-08-11T04:10:45.932Z,81.74
2022-08-11T04:11:45.904Z,81.94
2022-08-11T04:12:47.901Z,81.84
2022-08-11T04:13:45.880Z,81.13
2022-08-11T04:14:45.864Z,81.23
2022-08-11T04:15:45.866Z,81.03
2022-08-11T04:16:45.849Z,81.23
2022-08-11T04:17:45.842Z,81.64
2022-08-11T04:18:45.835Z,81.13
2022-08-11T04:19:45.815Z,82.24
2022-08-11T04:20:45.809Z,81.84
2022-08-11T04:21:45.787Z,82.04
2022-08-11T04:22:45.773Z,81.94
2022-08-11T04:24:35.057Z,82.04
2022-08-11T04:24:50.320Z,81.84
2022-08-11T04:25:58.204Z,81.34
2022-08-11T04:26:46.741Z,81.84
2022-08-11T04:27:45.716Z,81.44
2022-08-11T04:28:49.743Z,81.54
2022-08-11T04:30:03.763Z,81.94
2022-08-11T04:30:46.688Z,82.14
2022-08-11T04:31:52.293Z,82.14
2022-08-11T04:32:46.659Z,82.04
2022-08-11T04:33:45.646Z,81.94
2022-08-11T04:34:45.645Z,81.94
2022-08-11T04:35:50.706Z,81.74
2022-08-11T04:36:46.620Z,81.84
2022-08-11T04:37:51.256Z,81.34
2022-08-11T04:38:46.593Z,81.44
2022-08-11T04:39:45.633Z,81.78
2022-08-11T04:40:45.584Z,82.28
2022-08-11T04:41:45.578Z,82.24
2022-08-11T04:42:45.543Z,82.14
2022-08-11T04:44:05.570Z,81.94
2022-08-11T04:44:46.519Z,82.35
2022-08-11T04:45:45.507Z,82.55
2022-08-11T04:46:45.515Z,82.55
2022-08-11T04:48:01.783Z,82.55
2022-08-11T04:48:46.483Z,82.49
2022-08-11T04:49:45.465Z,82.95
2022-08-11T04:50:45.461Z,83.09
2022-08-11T04:51:46.465Z,82.04
2022-08-11T04:52:45.431Z,82.55
2022-08-11T04:53:45.426Z,82.69
2022-08-11T04:54:46.409Z,82.65
2022-08-11T04:55:45.394Z,82.99
2022-08-11T04:56:45.391Z,83.29
2022-08-11T04:57:45.378Z,82.95
2022-08-11T04:58:45.371Z,82.95
2022-08-11T04:59:45.356Z,83.05
2022-08-11T05:00:45.334Z,83.26
2022-08-11T05:01:45.401Z,83.26
2022-08-11T05:02:45.312Z,83.56
2022-08-11T05:03:45.305Z,82.65
2022-08-11T05:04:45.300Z,82.95
2022-08-11T05:05:56.315Z,83.56
2022-08-11T05:06:46.288Z,82.55
2022-08-11T05:07:45.293Z,82.24
2022-08-11T05:08:45.242Z,82.04
2022-08-11T05:09:45.242Z,83.12
2022-08-11T05:10:45.232Z,82.21
2022-08-11T05:11:45.225Z,83.22
2022-08-11T05:12:45.203Z,82.61
2022-08-11T05:13:45.197Z,82.61
2022-08-11T05:14:45.191Z,82.71
2022-08-11T05:15:48.309Z,82.51
2022-08-11T05:16:46.182Z,82.21
2022-08-11T05:17:45.143Z,82.71
2022-08-11T05:18:45.132Z,82.41
2022-08-11T05:19:45.127Z,82.31
2022-08-11T05:20:45.119Z,82.41
2022-08-11T05:21:45.493Z,82.81
2022-08-11T05:22:45.104Z,82.01
2022-08-11T05:23:45.076Z,82.51
2022-08-11T05:24:45.074Z,83.12
2022-08-11T05:26:44.508Z,83.01
2022-08-11T05:26:49.169Z,82.17
2022-08-11T05:27:45.054Z,82.78
2022-08-11T05:28:45.019Z,82.78
2022-08-11T05:29:45.012Z,81.96
2022-08-11T05:30:44.999Z,83.07
2022-08-11T05:31:45.006Z,82.37
2022-08-11T05:32:45.001Z,82.37
2022-08-11T05:33:44.961Z,82.47
2022-08-11T05:34:44.950Z,82.27
2022-08-11T05:36:00.590Z,82.33
2022-08-11T05:36:45.931Z,81.93
2022-08-11T05:37:44.930Z,81.93
2022-08-11T05:38:44.904Z,81.62
2022-08-11T05:39:44.957Z,81.48
2022-08-11T05:40:51.205Z,81.08
2022-08-11T05:41:45.882Z,80.33
2022-08-11T05:42:44.875Z,79.63
2022-08-11T05:44:21.585Z,78.49
2022-08-11T05:44:45.838Z,78.69
2022-08-11T05:45:58.262Z,78.35
2022-08-11T05:46:45.815Z,78.55
2022-08-11T05:47:44.821Z,77.91
2022-08-11T05:48:44.800Z,77.61
2022-08-11T05:49:44.802Z,78.17
2022-08-11T05:50:44.770Z,77.53
2022-08-11T05:51:52.474Z,76.73
2022-08-11T05:52:46.842Z,75.79
2022-08-11T05:53:46.426Z,74.58
2022-08-11T05:54:46.194Z,74.65
2022-08-11T05:56:02.186Z,74.74
2022-08-11T05:56:45.705Z,74.01
2022-08-11T05:57:51.010Z,73.37
2022-08-11T05:58:45.678Z,73.27
2022-08-11T05:59:44.677Z,73.03
2022-08-11T06:00:44.664Z,72.90
2022-08-11T06:01:44.833Z,72.47
2022-08-11T06:02:44.713Z,71.23
2022-08-11T06:03:58.632Z,70.32
2022-08-11T06:04:45.614Z,69.93
2022-08-11T06:05:44.601Z,70.43
2022-08-11T06:06:46.849Z,70.89
2022-08-11T06:07:47.229Z,70.26
2022-08-11T06:08:44.581Z,70.23
2022-08-11T06:09:44.560Z,69.93
2022-08-11T06:10:44.550Z,69.89
2022-08-11T06:11:45.098Z,69.39
2022-08-11T06:12:44.540Z,69.46
2022-08-11T06:13:44.530Z,68.56
2022-08-11T06:14:44.504Z,68.43
2022-08-11T06:15:44.487Z,68.19
2022-08-11T06:16:44.478Z,67.69
2022-08-11T06:17:44.475Z,67.53
2022-08-11T06:18:44.472Z,66.60
2022-08-11T06:19:44.446Z,65.74
2022-08-11T06:20:44.432Z,63.62
2022-08-11T06:21:44.421Z,63.92
2022-08-11T06:22:44.409Z,63.98
2022-08-11T06:23:44.420Z,63.36
2022-08-11T06:24:44.390Z,62.96
2022-08-11T06:25:44.378Z,61.80
2022-08-11T06:27:10.714Z,61.71
2022-08-11T06:27:45.361Z,61.08
2022-08-11T06:28:44.354Z,59.76
2022-08-11T06:29:48.136Z,59.83
2022-08-11T06:30:45.325Z,59.74
2022-08-11T06:31:44.315Z,59.01
2022-08-11T06:32:44.295Z,55.47
2022-08-11T06:33:44.318Z,56.49
2022-08-11T06:34:44.272Z,57.55
2022-08-11T06:35:44.265Z,58.15
2022-08-11T06:36:44.258Z,54.45
2022-08-11T06:37:44.243Z,53.68
2022-08-11T06:38:44.241Z,56.43
2022-08-11T06:39:44.346Z,54.15
2022-08-11T06:40:44.207Z,54.64
2022-08-11T06:41:44.201Z,54.13
2022-08-11T06:42:44.192Z,54.39
2022-08-11T06:43:44.192Z,56.57
2022-08-11T06:44:45.195Z,52.44
2022-08-11T06:45:44.156Z,52.84
2022-08-11T06:46:44.146Z,52.81
2022-08-11T06:47:44.141Z,51.72
2022-08-11T06:48:44.134Z,51.72
2022-08-11T06:49:44.121Z,52.69
2022-08-11T06:50:44.100Z,52.78
2022-08-11T06:51:44.094Z,52.88
2022-08-11T06:52:44.111Z,52.78
2022-08-11T06:53:44.108Z,51.79
2022-08-11T06:54:45.055Z,52.07
2022-08-11T06:55:57.068Z,49.91
2022-08-11T06:56:45.037Z,51.00
2022-08-11T06:57:44.020Z,50.41
2022-08-11T06:58:44.010Z,50.21
2022-08-11T06:59:44.017Z,50.68
2022-08-11T07:00:44.002Z,52.56
2022-08-11T07:01:44.070Z,50.31
2022-08-11T07:02:43.995Z,51.60
2022-08-11T07:03:43.962Z,50.81
2022-08-11T07:04:43.943Z,50.21
2022-08-11T07:05:44.035Z,51.03
2022-08-11T07:06:51.165Z,51.52
2022-08-11T07:07:44.921Z,50.06
2022-08-11T07:08:43.906Z,49.86
2022-08-11T07:09:43.895Z,52.64
2022-08-11T07:10:43.889Z,49.96
2022-08-11T07:11:43.872Z,50.46
2022-08-11T07:12:43.874Z,50.46
2022-08-11T07:13:45.538Z,51.47
2022-08-11T07:14:43.838Z,52.37
2022-08-11T07:16:12.673Z,50.68
2022-08-11T07:16:44.823Z,49.88
2022-08-11T07:17:43.810Z,54.05
2022-08-11T07:18:43.831Z,50.65
2022-08-11T07:19:43.786Z,51.05
2022-08-11T07:20:43.773Z,52.51
2022-08-11T07:22:02.844Z,50.06
2022-08-11T07:22:44.749Z,50.95
2022-08-11T07:23:43.758Z,54.00
2022-08-11T07:25:01.817Z,53.78
2022-08-11T07:25:44.736Z,50.81
2022-08-11T07:26:43.719Z,50.23
2022-08-11T07:27:43.703Z,50.21
2022-08-11T07:28:43.686Z,49.42
2022-08-11T07:29:43.696Z,50.60
2022-08-11T07:30:43.667Z,47.63
2022-08-11T07:31:43.693Z,47.63
2022-08-11T07:32:43.642Z,48.92
2022-08-11T07:34:05.717Z,47.24
2022-08-11T07:34:44.635Z,49.02
2022-08-11T07:35:43.612Z,48.92
2022-08-11T07:36:43.609Z,48.70
2022-08-11T07:37:43.588Z,46.03
2022-08-11T07:38:43.578Z,46.15
2022-08-11T07:39:43.621Z,47.34
2022-08-11T07:40:43.557Z,47.44
2022-08-11T07:41:43.563Z,47.02
2022-08-11T07:42:43.541Z,45.95
2022-08-11T07:43:43.522Z,47.71
2022-08-11T07:44:43.517Z,47.12
2022-08-11T07:45:43.496Z,45.83
2022-08-11T07:46:43.537Z,44.45
2022-08-11T07:47:43.477Z,45.56
2022-08-11T07:48:43.462Z,45.06
2022-08-11T07:49:43.456Z,45.56
2022-08-11T07:50:43.443Z,46.05
2022-08-11T07:51:43.437Z,44.46
2022-08-11T07:52:43.508Z,44.86
2022-08-11T07:53:58.813Z,44.46
2022-08-11T07:54:46.357Z,44.86
2022-08-11T07:55:49.587Z,45.95
2022-08-11T07:56:54.841Z,44.67
2022-08-11T07:58:14.304Z,44.45
2022-08-11T07:58:45.462Z,44.84
2022-08-11T08:00:00.379Z,45.14
2022-08-11T08:00:44.346Z,44.35
2022-08-11T08:01:43.445Z,45.43
2022-08-11T08:02:43.306Z,45.51
2022-08-11T08:03:54.156Z,45.71
2022-08-11T08:04:47.392Z,45.09
2022-08-11T08:05:43.279Z,45.71
2022-08-11T08:06:43.293Z,47.09
2022-08-11T08:07:43.256Z,47.17
2022-08-11T08:08:43.253Z,44.31
2022-08-11T08:09:43.246Z,44.20
2022-08-11T08:10:43.216Z,43.91
2022-08-11T08:11:43.212Z,44.90
2022-08-11T08:12:43.194Z,44.20
2022-08-11T08:13:43.195Z,44.38
2022-08-11T08:14:43.186Z,44.58
2022-08-11T08:15:43.165Z,44.28
2022-08-11T08:16:43.181Z,44.36
2022-08-11T08:17:43.148Z,44.38
2022-08-11T08:18:43.132Z,44.26
2022-08-11T08:19:43.137Z,44.38
2022-08-11T08:20:43.110Z,43.69
2022-08-11T08:21:45.455Z,43.77
2022-08-11T08:22:47.851Z,43.66
2022-08-11T08:23:44.083Z,44.56
2022-08-11T08:24:43.073Z,44.56
2022-08-11T08:25:43.053Z,43.57
2022-08-11T08:26:43.038Z,43.17
2022-08-11T08:27:44.027Z,44.85
2022-08-11T08:28:43.036Z,47.13
2022-08-11T08:29:43.027Z,46.11
2022-08-11T08:30:43.008Z,43.45
2022-08-11T08:31:42.986Z,44.24
2022-08-11T08:32:42.973Z,43.05
2022-08-11T08:33:42.969Z,43.73
2022-08-11T08:34:43.277Z,43.03
2022-08-11T08:35:55.818Z,42.83
2022-08-11T08:36:43.929Z,43.43
2022-08-11T08:37:46.355Z,41.95
2022-08-11T08:38:42.904Z,41.65
2022-08-11T08:39:43.099Z,43.03
2022-08-11T08:40:43.252Z,47.67
2022-08-11T08:41:42.882Z,44.10
2022-08-11T08:42:45.301Z,44.39
2022-08-11T08:43:49.236Z,43.70
2022-08-11T08:44:45.106Z,42.13
2022-08-11T08:45:42.840Z,42.60
2022-08-11T08:46:42.816Z,41.91
2022-08-11T08:47:43.469Z,41.91
2022-08-11T08:48:42.795Z,40.33
2022-08-11T08:49:42.787Z,41.02
2022-08-11T08:50:42.781Z,41.91
2022-08-11T08:52:01.030Z,41.41
2022-08-11T08:52:44.143Z,41.51
2022-08-11T08:53:51.771Z,41.09
2022-08-11T08:54:43.728Z,42.38
2022-08-11T08:55:45.570Z,40.80
2022-08-11T08:56:42.705Z,40.29
2022-08-11T08:57:42.810Z,40.70
2022-08-11T08:58:42.678Z,40.11
2022-08-11T08:59:48.733Z,41.30
2022-08-11T09:00:43.669Z,42.55
2022-08-11T09:01:42.717Z,40.00
2022-08-11T09:02:42.641Z,40.58
2022-08-11T09:04:07.267Z,40.39
2022-08-11T09:04:43.618Z,40.19
2022-08-11T09:05:42.603Z,42.76
2022-08-11T09:06:42.600Z,41.86
2022-08-11T09:07:42.917Z,40.19
2022-08-11T09:08:42.590Z,39.39
2022-08-11T09:09:42.562Z,39.58
2022-08-11T09:10:42.556Z,39.26
2022-08-11T09:11:42.557Z,40.17
2022-08-11T09:12:42.555Z,39.66
2022-08-11T09:13:42.510Z,43.01
2022-08-11T09:14:42.526Z,39.37
2022-08-11T09:15:42.490Z,39.76
2022-08-11T09:16:42.496Z,38.97
2022-08-11T09:17:42.463Z,39.48
2022-08-11T09:18:42.481Z,39.87
2022-08-11T09:19:42.460Z,39.78
2022-08-11T09:20:42.440Z,39.47
2022-08-11T09:21:49.076Z,39.58
2022-08-11T09:22:43.412Z,37.79
2022-08-11T09:24:08.756Z,39.56
2022-08-11T09:24:43.388Z,38.28
2022-08-11T09:25:42.386Z,38.87
2022-08-11T09:26:42.367Z,38.28
2022-08-11T09:27:50.422Z,38.36
2022-08-11T09:28:43.355Z,37.67
2022-08-11T09:29:42.329Z,38.46
2022-08-11T09:30:42.327Z,37.87
2022-08-11T09:31:42.308Z,39.86
2022-08-11T09:32:42.300Z,39.56
2022-08-11T09:33:42.825Z,37.99
2022-08-11T09:34:42.277Z,38.87
2022-08-11T09:35:42.272Z,39.37
2022-08-11T09:36:42.263Z,38.17
2022-08-11T09:37:54.484Z,40.23
2022-08-11T09:38:48.816Z,37.67
2022-08-11T09:39:43.259Z,37.08
2022-08-11T09:40:42.221Z,38.26
2022-08-11T09:42:00.390Z,36.20
2022-08-11T09:42:43.188Z,37.08
2022-08-11T09:43:42.194Z,36.49
2022-08-11T09:44:42.168Z,37.77
2022-08-11T09:45:42.159Z,36.49
2022-08-11T09:46:42.148Z,37.28
2022-08-11T09:47:42.134Z,36.77
2022-08-11T09:48:42.127Z,37.38
2022-08-11T09:49:42.120Z,38.44
2022-08-11T09:50:42.105Z,38.44
2022-08-11T09:51:42.094Z,38.13
2022-08-11T09:52:57.415Z,37.63
2022-08-11T09:53:47.143Z,37.34
2022-08-11T09:54:43.066Z,37.93
2022-08-11T09:55:43.081Z,37.72
2022-08-11T09:56:42.038Z,38.60
2022-08-11T09:57:42.023Z,36.05
2022-08-11T09:58:43.575Z,35.66
2022-08-11T09:59:41.998Z,37.92
2022-08-11T10:00:41.996Z,37.13
2022-08-11T10:01:42.063Z,37.11
2022-08-11T10:02:41.980Z,35.44
2022-08-11T10:03:41.953Z,37.11
2022-08-11T10:04:41.961Z,38.85
2022-08-11T10:05:41.945Z,39.84
2022-08-11T10:06:41.924Z,37.88
2022-08-11T10:07:41.910Z,37.58
2022-08-11T10:08:41.922Z,36.42
2022-08-11T10:09:41.906Z,36.52
2022-08-11T10:10:41.904Z,36.52
2022-08-11T10:11:41.888Z,35.93
2022-08-11T10:12:41.861Z,36.13
2022-08-11T10:14:31.122Z,34.66
2022-08-11T10:14:44.828Z,36.22
2022-08-11T10:15:59.730Z,35.91
2022-08-11T10:16:42.828Z,35.93
2022-08-11T10:17:41.839Z,34.36
2022-08-11T10:18:41.818Z,34.46
2022-08-11T10:19:41.787Z,35.93
2022-08-11T10:20:41.810Z,36.15
2022-08-11T10:21:41.775Z,38.50
2022-08-11T10:22:41.750Z,37.23
2022-08-11T10:24:00.905Z,37.92
2022-08-11T10:24:42.730Z,35.83
2022-08-11T10:25:41.720Z,36.13
2022-08-11T10:26:41.724Z,35.83
2022-08-11T10:28:17.819Z,36.52
2022-08-11T10:29:09.626Z,34.18
2022-08-11T10:29:44.367Z,36.82
2022-08-11T10:30:42.333Z,36.52
2022-08-11T10:31:57.785Z,33.97
2022-08-11T10:32:57.571Z,36.13
2022-08-11T10:33:49.205Z,35.74
2022-08-11T10:34:42.619Z,34.85
2022-08-11T10:35:42.609Z,37.50
2022-08-11T10:36:41.610Z,35.33
2022-08-11T10:38:15.742Z,35.24
2022-08-11T10:38:42.611Z,34.46
2022-08-11T10:39:41.647Z,35.33
2022-08-11T10:40:41.569Z,36.01
2022-08-11T10:42:01.861Z,34.83
2022-08-11T10:42:57.190Z,37.68
2022-08-11T10:44:02.170Z,36.70
2022-08-11T10:44:42.541Z,35.33
2022-08-11T10:45:41.504Z,36.30
2022-08-11T10:46:41.490Z,34.34
2022-08-11T10:47:48.986Z,33.46
2022-08-11T10:48:42.510Z,35.72
2022-08-11T10:49:41.461Z,34.54
2022-08-11T10:50:41.445Z,33.28
2022-08-11T10:51:50.561Z,35.24
2022-08-11T10:52:42.435Z,34.67
2022-08-11T10:53:41.451Z,36.52
2022-08-11T10:54:41.409Z,37.40
2022-08-11T10:55:41.388Z,35.75
2022-08-11T10:56:41.380Z,35.36
2022-08-11T10:57:41.596Z,35.36
2022-08-11T10:58:41.378Z,33.39
2022-08-11T10:59:41.344Z,35.06
2022-08-11T11:00:41.339Z,38.21
2022-08-11T11:01:41.385Z,35.55
2022-08-11T11:02:41.317Z,36.32
2022-08-11T11:03:42.296Z,38.58
2022-08-11T11:04:41.293Z,36.30
2022-08-11T11:06:28.479Z,35.33
2022-08-11T11:06:42.270Z,34.46
2022-08-11T11:07:44.059Z,33.48
2022-08-11T11:08:41.320Z,33.29
2022-08-11T11:09:41.279Z,34.67
2022-08-11T11:10:41.234Z,38.50
2022-08-11T11:11:41.253Z,39.76
2022-08-11T11:12:41.317Z,36.82
2022-08-11T11:13:41.245Z,35.55
2022-08-11T11:14:46.204Z,35.46
2022-08-11T11:15:41.174Z,33.69
2022-08-11T11:16:41.182Z,36.44
2022-08-11T11:17:41.157Z,36.52
2022-08-11T11:18:41.190Z,35.24
2022-08-11T11:19:41.129Z,35.64
2022-08-11T11:20:46.544Z,33.67
2022-08-11T11:21:42.433Z,37.50
2022-08-11T11:22:41.254Z,35.52
2022-08-11T11:23:41.111Z,36.62
2022-08-11T11:24:41.092Z,35.91
2022-08-11T11:25:41.060Z,33.28
2022-08-11T11:26:41.109Z,34.56
2022-08-11T11:27:46.726Z,34.08
2022-08-11T11:28:42.784Z,37.72
2022-08-11T11:29:41.023Z,38.50
2022-08-11T11:30:41.034Z,33.69
2022-08-11T11:31:41.028Z,35.95
2022-08-11T11:32:41.193Z,37.52
2022-08-11T11:34:06.904Z,37.21
2022-08-11T11:34:52.999Z,35.14
2022-08-11T11:35:41.954Z,35.54
2022-08-11T11:36:40.945Z,36.42
2022-08-11T11:37:40.927Z,34.66
2022-08-11T11:38:41.927Z,33.38
2022-08-11T11:39:40.991Z,34.08
2022-08-11T11:40:40.911Z,34.47
2022-08-11T11:41:40.891Z,33.59
2022-08-11T11:42:41.038Z,34.47
2022-08-11T11:43:40.863Z,34.38
2022-08-11T11:44:40.925Z,39.09
2022-08-11T11:45:40.857Z,33.00
2022-08-11T11:46:40.840Z,36.07
2022-08-11T11:47:40.821Z,34.20
2022-08-11T11:48:40.817Z,37.15
2022-08-11T11:49:40.817Z,36.75
2022-08-11T11:50:40.803Z,34.39
2022-08-11T11:51:40.784Z,33.70
2022-08-11T11:52:40.991Z,35.77
2022-08-11T11:53:40.757Z,34.78
2022-08-11T11:54:40.783Z,34.30
2022-08-11T11:55:40.746Z,34.39
2022-08-11T11:56:40.740Z,34.39
2022-08-11T11:57:40.890Z,34.08
2022-08-11T11:58:40.742Z,34.28
2022-08-11T11:59:40.719Z,33.79
2022-08-11T12:00:43.449Z,37.82
2022-08-11T12:01:40.683Z,35.64
2022-08-11T12:02:41.687Z,34.08
2022-08-11T12:03:40.781Z,33.69
2022-08-11T12:04:40.701Z,34.97
2022-08-11T12:05:40.647Z,33.79
2022-08-11T12:06:40.628Z,34.49
2022-08-11T12:07:40.733Z,35.57
2022-08-11T12:08:40.611Z,36.46
2022-08-11T12:09:40.618Z,36.26
2022-08-11T12:10:40.594Z,36.54
2022-08-11T12:11:40.569Z,34.47
2022-08-11T12:12:40.571Z,34.89
2022-08-11T12:13:40.540Z,34.58
2022-08-11T12:14:40.534Z,32.51
2022-08-11T12:16:31.987Z,33.10
2022-08-11T12:16:41.583Z,33.98
2022-08-11T12:17:41.793Z,33.59
2022-08-11T12:18:40.489Z,35.36
2022-08-11T12:19:40.476Z,35.85
2022-08-11T12:20:41.499Z,33.67
2022-08-11T12:21:40.477Z,34.75
2022-08-11T12:22:41.448Z,34.16
2022-08-11T12:23:40.436Z,33.58
2022-08-11T12:24:40.425Z,34.56
2022-08-11T12:25:40.418Z,33.58
2022-08-11T12:26:40.422Z,34.85
2022-08-11T12:27:40.574Z,33.38
2022-08-11T12:28:40.414Z,33.28
2022-08-11T12:29:43.746Z,35.34
2022-08-11T12:30:40.399Z,33.18
2022-08-11T12:31:40.369Z,37.60
2022-08-11T12:32:40.770Z,36.82
2022-08-11T12:33:40.331Z,33.67
2022-08-11T12:34:40.434Z,35.64
2022-08-11T12:35:40.300Z,35.42
2022-08-11T12:36:41.328Z,38.17
2022-08-11T12:37:40.609Z,34.36
2022-08-11T12:38:40.277Z,34.46
2022-08-11T12:40:16.729Z,32.50
2022-08-11T12:41:11.848Z,34.16
2022-08-11T12:41:41.284Z,33.08
2022-08-11T12:42:40.259Z,35.05
2022-08-11T12:43:40.224Z,33.58
2022-08-11T12:44:40.278Z,34.36
2022-08-11T12:45:40.196Z,35.54
2022-08-11T12:46:40.197Z,36.13
2022-08-11T12:47:40.509Z,33.46
2022-08-11T12:49:00.001Z,33.85
2022-08-11T12:49:45.326Z,33.38
2022-08-11T12:50:40.147Z,34.34
2022-08-11T12:52:11.127Z,33.95
2022-08-11T12:52:41.118Z,34.34